Skanawan, Wisconsin
Current Conditions -  °F | °C
As of 10:15 AM on Wednesday 28 Jan 2015 (Local Time) from KTKV Reporting Station
Haze Haze  
Wind Chill: 16°   Ceiling: 500
Heat Index: 24°   Visibility: 4mi
Dew Point: 21°   Wind: 6mph
Humidity: 90%   Direction: 150°SSE
Pressure: 30.07"   Gusts: NA
Location:  45.3496°N, 89.6689°W
Report Text: KTKV 281615Z AUTO 15005KT 4SM BR OVC005 M05/M06 A3007 RMK AO2 T10471061
Loading
Personal Weather Stations






























Interactive Weather Map New forecast layout! Learn more

10-Day Weather Forecast

Advertisements
Track Severe Weather on mobile